createdAt,value
2019-05-13T00:01:07.015Z,103349.34
2019-05-13T00:05:58.933Z,103359.96
2019-05-13T00:10:54.174Z,103354.16
2019-05-13T00:15:48.215Z,103363.05
2019-05-13T00:20:44.309Z,103360.11
2019-05-13T00:25:39.430Z,103349.61
2019-05-13T00:30:34.295Z,103353.98
2019-05-13T00:35:28.491Z,103352.83
2019-05-13T00:40:24.036Z,103359.19
2019-05-13T00:45:18.218Z,103359.19
2019-05-13T00:50:14.172Z,103357.88
2019-05-13T00:55:10.073Z,103353.94
2019-05-13T01:00:06.076Z,103350.75
2019-05-13T01:05:00.028Z,103351.25
2019-05-13T01:09:53.977Z,103357.77
2019-05-13T01:14:47.931Z,103357.84
2019-05-13T01:19:43.313Z,103354.95
2019-05-13T01:24:40.068Z,103356.83
2019-05-13T01:29:34.568Z,103357.02
2019-05-13T01:34:28.705Z,103371.38
2019-05-13T01:39:24.292Z,103362.13
2019-05-13T01:44:18.511Z,103365.47
2019-05-13T01:49:13.691Z,103364.84
2019-05-13T01:54:08.276Z,103367.31
2019-05-13T01:59:03.646Z,103366.56
2019-05-13T02:03:57.901Z,103367.98
2019-05-13T02:08:54.329Z,103374.78
2019-05-13T02:13:47.696Z,103386.12
2019-05-13T02:18:41.709Z,103388.84
2019-05-13T02:23:36.274Z,103390.89
2019-05-13T02:28:30.232Z,103386.75
2019-05-13T02:33:24.303Z,103399.89
2019-05-13T02:38:24.815Z,103403.85
2019-05-13T02:43:14.248Z,103404.66
2019-05-13T02:48:08.309Z,103408.48
2019-05-13T02:53:02.658Z,103409.98
2019-05-13T02:57:56.723Z,103412.06
2019-05-13T03:02:52.450Z,103421.12
2019-05-13T03:07:46.547Z,103413.08
2019-05-13T03:12:42.419Z,103415.92
2019-05-13T03:17:43.304Z,103421.39
2019-05-13T03:22:37.313Z,103429.37
2019-05-13T03:27:33.758Z,103425.48
2019-05-13T03:32:34.955Z,103434.05
2019-05-13T03:37:26.229Z,103433.47
2019-05-13T03:42:22.647Z,103444.30
2019-05-13T03:47:17.968Z,103444.76
2019-05-13T03:52:13.508Z,103461.25
2019-05-13T03:57:08.228Z,103457.02
2019-05-13T04:02:02.810Z,103467.70
2019-05-13T04:06:57.238Z,103472.05
2019-05-13T04:11:52.575Z,103474.22
2019-05-13T04:16:48.882Z,103473.82
2019-05-13T04:21:43.330Z,103481.22
2019-05-13T04:26:37.468Z,103488.47
2019-05-13T04:31:33.347Z,103484.58
2019-05-13T04:36:27.385Z,103486.56
2019-05-13T04:41:22.968Z,103483.50
2019-05-13T04:46:17.336Z,103492.28
2019-05-13T04:51:13.566Z,103488.94
2019-05-13T04:56:07.603Z,103497.87
2019-05-13T05:01:13.988Z,103501.59
2019-05-13T05:06:42.399Z,103500.73
2019-05-13T05:11:52.961Z,103500.75
2019-05-13T05:16:56.855Z,103506.16
2019-05-13T05:22:03.811Z,103504.95
2019-05-13T05:27:31.693Z,103498.08
2019-05-13T05:32:44.663Z,103502.08
2019-05-13T05:37:48.727Z,103506.27
2019-05-13T05:42:42.893Z,103503.77
2019-05-13T05:47:37.949Z,103498.80
2019-05-13T05:52:33.010Z,103505.44
2019-05-13T05:57:31.423Z,103503.83
2019-05-13T06:02:25.985Z,103506.98
2019-05-13T06:07:21.941Z,103510.45
2019-05-13T06:12:16.012Z,103507.87
2019-05-13T06:17:11.498Z,103502.80
2019-05-13T06:22:05.678Z,103510.06
2019-05-13T06:27:01.494Z,103515.27
2019-05-13T06:31:55.822Z,103511.97
2019-05-13T06:36:52.137Z,103515.02
2019-05-13T06:41:46.034Z,103505.11
2019-05-13T06:46:42.302Z,103507.64
2019-05-13T06:51:35.970Z,103504.56
2019-05-13T06:56:32.238Z,103506.03
2019-05-13T07:01:26.080Z,103507.66
2019-05-13T07:06:21.746Z,103511.48
2019-05-13T07:11:21.626Z,103512.62
2019-05-13T07:16:13.866Z,103512.30
2019-05-13T07:21:07.839Z,103504.35
2019-05-13T07:26:01.976Z,103506.04
2019-05-13T07:30:56.024Z,103512.06
2019-05-13T07:35:57.251Z,103504.67
2019-05-13T07:40:52.143Z,103501.64
2019-05-13T07:45:46.058Z,103506.58
2019-05-13T07:50:53.636Z,103508.72
2019-05-13T07:55:36.073Z,103505.63
2019-05-13T08:00:32.553Z,103510.27
2019-05-13T08:05:26.493Z,103510.22
2019-05-13T08:10:21.928Z,103504.70
2019-05-13T08:15:16.297Z,103502.62
2019-05-13T08:20:12.488Z,103500.27
2019-05-13T08:25:07.643Z,103499.05
2019-05-13T08:30:03.016Z,103496.88
2019-05-13T08:35:01.482Z,103500.41
2019-05-13T08:39:52.970Z,103500.72
2019-05-13T08:44:47.049Z,103495.86
2019-05-13T08:49:41.522Z,103495.11
2019-05-13T08:54:35.854Z,103492.47
2019-05-13T08:59:31.701Z,103499.09
2019-05-13T09:04:26.202Z,103495.00
2019-05-13T09:09:22.026Z,103493.02
2019-05-13T09:14:16.288Z,103489.05
2019-05-13T09:19:15.755Z,103495.59
2019-05-13T09:24:20.621Z,103486.94
2019-05-13T09:29:02.353Z,103481.97
2019-05-13T09:33:56.436Z,103490.67
2019-05-13T09:38:52.484Z,103481.26
2019-05-13T09:43:46.275Z,103476.02
2019-05-13T09:48:42.494Z,103475.16
2019-05-13T09:53:36.187Z,103475.16
2019-05-13T09:58:32.922Z,103484.43
2019-05-13T10:03:29.525Z,103468.72
2019-05-13T10:08:22.264Z,103470.42
2019-05-13T10:13:16.486Z,103480.67
2019-05-13T10:18:12.625Z,103469.92
2019-05-13T10:23:06.576Z,103474.70
2019-05-13T10:28:02.023Z,103475.27
2019-05-13T10:32:59.412Z,103464.91
2019-05-13T10:37:52.454Z,103465.94
2019-05-13T10:42:46.736Z,103462.42
2019-05-13T10:47:42.260Z,103446.23
2019-05-13T10:52:36.647Z,103442.20
2019-05-13T10:57:31.875Z,103433.50
2019-05-13T11:02:26.254Z,103438.39
2019-05-13T11:07:22.512Z,103422.25
2019-05-13T11:12:16.241Z,103416.77
2019-05-13T11:17:13.583Z,103409.14
2019-05-13T11:22:07.717Z,103398.48
2019-05-13T11:27:02.862Z,103394.39
2019-05-13T11:31:57.180Z,103388.33
2019-05-13T11:36:53.424Z,103387.93
2019-05-13T11:41:47.142Z,103378.36
2019-05-13T11:46:42.694Z,103379.33
2019-05-13T11:51:37.205Z,103376.91
2019-05-13T11:56:33.785Z,103371.42
2019-05-13T12:01:27.672Z,103361.27
2019-05-13T12:06:23.232Z,103359.27
2019-05-13T12:11:17.553Z,103331.27
2019-05-13T12:16:12.939Z,103337.95
2019-05-13T12:21:07.114Z,103320.97
2019-05-13T12:26:04.329Z,103320.24
2019-05-13T12:30:57.188Z,103322.04
2019-05-13T12:35:53.010Z,103307.06
2019-05-13T12:40:47.164Z,103297.88
2019-05-13T12:45:43.084Z,103301.80
2019-05-13T12:50:37.203Z,103284.31
2019-05-13T12:55:33.129Z,103289.94
2019-05-13T13:00:27.193Z,103272.87
2019-05-13T13:05:24.791Z,103263.95
2019-05-13T13:10:17.419Z,103261.53
2019-05-13T13:20:09.706Z,103229.44
2019-05-13T13:25:05.569Z,103233.95
2019-05-13T13:30:04.264Z,103226.86
2019-05-13T13:34:55.414Z,103230.22
2019-05-13T13:39:54.325Z,103220.66
2019-05-13T13:44:45.599Z,103221.77
2019-05-13T13:49:43.678Z,103222.92
2019-05-13T13:54:35.499Z,103204.77
2019-05-13T13:59:35.594Z,103200.18
2019-05-13T14:04:25.525Z,103195.50
2019-05-13T14:06:50.059Z,103253.37
2019-05-13T14:09:22.433Z,103193.30
2019-05-13T14:14:15.478Z,103184.57
2019-05-13T14:19:09.577Z,103175.00
2019-05-13T14:24:03.670Z,103172.92
2019-05-13T14:28:57.980Z,103167.11
2019-05-13T14:33:52.220Z,103155.00
2019-05-13T14:38:46.474Z,103162.34
2019-05-13T14:43:40.440Z,103166.73
2019-05-13T14:48:34.450Z,103161.78
2019-05-13T14:53:28.565Z,103160.22
2019-05-13T14:58:22.541Z,103153.08
2019-05-13T15:03:16.673Z,103169.28
2019-05-13T15:08:10.777Z,103158.52
2019-05-13T15:13:05.080Z,103151.11
2019-05-13T15:18:01.279Z,103145.85
2019-05-13T15:22:55.220Z,103140.39
2019-05-13T15:27:49.332Z,103142.91
2019-05-13T15:32:43.320Z,103126.52
2019-05-13T15:37:37.436Z,103132.95
2019-05-13T15:42:32.019Z,103138.33
2019-05-13T15:47:26.860Z,103126.48
2019-05-13T15:52:22.596Z,103116.11
2019-05-13T15:57:16.940Z,103124.37
2019-05-13T16:02:11.685Z,103110.14
2019-05-13T16:07:05.992Z,103111.39
2019-05-13T16:12:01.513Z,103108.05
2019-05-13T16:16:55.776Z,103102.34
2019-05-13T16:21:51.751Z,103105.30
2019-05-13T16:26:45.789Z,103091.36
2019-05-13T16:31:41.537Z,103102.77
2019-05-13T16:36:35.809Z,103106.84
2019-05-13T16:41:32.161Z,103110.20
2019-05-13T16:46:26.146Z,103106.20
2019-05-13T16:51:21.606Z,103114.58
2019-05-13T16:56:26.902Z,103114.89
2019-05-13T17:01:12.050Z,103112.34
2019-05-13T17:06:06.124Z,103114.34
2019-05-13T17:11:02.091Z,103107.82
2019-05-13T17:15:56.159Z,103104.69
2019-05-13T17:20:52.026Z,103105.81
2019-05-13T17:25:46.047Z,103105.68
2019-05-13T17:30:40.416Z,103108.52
2019-05-13T17:35:34.512Z,103103.88
2019-05-13T17:40:28.533Z,103095.67
2019-05-13T17:45:22.601Z,103096.89
2019-05-13T17:50:16.876Z,103099.91
2019-05-13T17:55:11.870Z,103093.86
2019-05-13T18:00:06.581Z,103099.16
2019-05-13T18:05:02.043Z,103096.48
2019-05-13T18:09:56.335Z,103097.61
2019-05-13T18:14:51.658Z,103093.47
2019-05-13T18:19:45.838Z,103089.91
2019-05-13T18:24:39.885Z,103096.06
2019-05-13T18:29:34.079Z,103091.80
2019-05-13T18:34:28.067Z,103091.93
2019-05-13T18:39:22.068Z,103093.84
2019-05-13T18:44:16.080Z,103087.03
2019-05-13T18:49:12.065Z,103090.20
2019-05-13T18:54:06.319Z,103085.90
2019-05-13T18:59:03.323Z,103096.95
2019-05-13T19:03:57.412Z,103095.35
2019-05-13T19:08:52.857Z,103096.94
2019-05-13T19:13:48.914Z,103100.36
2019-05-13T19:18:42.972Z,103108.69
2019-05-13T19:23:37.065Z,103105.56
2019-05-13T19:28:32.986Z,103115.33
2019-05-13T19:33:26.963Z,103114.47
2019-05-13T19:38:23.931Z,103115.02
2019-05-13T19:43:18.003Z,103122.53
2019-05-13T19:48:13.411Z,103120.70
2019-05-13T19:53:07.430Z,103123.33
2019-05-13T19:58:01.908Z,103124.19
2019-05-13T20:02:58.712Z,103119.55
2019-05-13T20:07:52.788Z,103126.62
2019-05-13T20:12:46.777Z,103121.94
2019-05-13T20:17:41.583Z,103124.69
2019-05-13T20:22:35.964Z,103135.72
2019-05-13T20:27:31.666Z,103131.30
2019-05-13T20:32:26.018Z,103130.80
2019-05-13T20:37:22.017Z,103129.33
2019-05-13T20:42:15.996Z,103133.81
2019-05-13T20:47:09.972Z,103140.09
2019-05-13T20:52:04.052Z,103141.13
2019-05-13T20:56:58.068Z,103145.70
2019-05-13T21:01:52.047Z,103146.13
2019-05-13T21:06:46.126Z,103153.85
2019-05-13T21:11:41.753Z,103157.28
2019-05-13T21:16:35.945Z,103162.45
2019-05-13T21:21:31.120Z,103159.72
2019-05-13T21:26:25.191Z,103160.16
2019-05-13T21:31:21.364Z,103154.21
2019-05-13T21:36:15.111Z,103156.48
2019-05-13T21:41:11.650Z,103156.39
2019-05-13T21:46:05.140Z,103154.45
2019-05-13T21:50:59.428Z,103158.48
2019-05-13T21:55:53.451Z,103156.91
2019-05-13T22:00:47.660Z,103158.89
2019-05-13T22:05:43.609Z,103148.09
2019-05-13T22:10:37.657Z,103148.21
2019-05-13T22:15:32.301Z,103147.09
2019-05-13T22:20:26.427Z,103151.06
2019-05-13T22:25:20.505Z,103147.03
2019-05-13T22:30:15.079Z,103138.72
2019-05-13T22:35:11.200Z,103133.88
2019-05-13T22:40:05.734Z,103139.30
2019-05-13T22:44:59.724Z,103141.66
2019-05-13T22:49:56.560Z,103143.94
2019-05-13T22:54:51.733Z,103135.36
2019-05-13T22:59:45.565Z,103133.32
2019-05-13T23:04:41.703Z,103137.26
2019-05-13T23:09:35.425Z,103134.14
2019-05-13T23:14:31.312Z,103139.99
2019-05-13T23:19:25.401Z,103130.37
2019-05-13T23:24:21.693Z,103130.39
2019-05-13T23:29:15.301Z,103134.00
2019-05-13T23:34:09.233Z,103123.38
2019-05-13T23:39:05.311Z,103123.38
2019-05-13T23:44:01.310Z,103125.78
2019-05-13T23:48:55.224Z,103120.70
2019-05-13T23:53:51.162Z,103119.03
2019-05-13T23:58:45.084Z,103118.49
